Time;durP1;ratioP1;P1;durP2;ratioP2;P2;SDS_P1;SDS_P2;PMS_P1;PMS_P2;Temp;Humidity;BMP_temperature;BMP_pressure;BME280_temperature;BME280_humidity;BME280_pressure;Samples;Min_cycle;Max_cycle;Signal;HPM_P1;HPM_P2
2022/12/23 00:01:24;;;;;;;72.20;41.22;;;7.30;79.30;;;;;;4937697;29;20107;-16
2022/12/23 00:03:51;;;;;;;76.72;42.75;;;7.30;79.20;;;;;;4937897;29;20031;-16
2022/12/23 00:06:18;;;;;;;74.65;42.83;;;7.20;79.20;;;;;;4937511;29;20032;-17
2022/12/23 00:08:45;;;;;;;78.13;42.05;;;7.20;79.20;;;;;;4937583;29;20044;-15
2022/12/23 00:11:16;;;;;;;77.47;44.63;;;7.00;79.20;;;;;;4937542;29;20038;-17
2022/12/23 00:16:27;;;;;;;59.47;33.60;;;6.90;79.50;;;;;;4937126;29;20039;-17
2022/12/23 00:18:54;;;;;;;76.32;41.28;;;6.90;79.70;;;;;;4937065;29;20035;-17
2022/12/23 00:21:20;;;;;;;70.10;36.50;;;6.90;79.80;;;;;;4937416;29;20032;-17
2022/12/23 00:23:48;;;;;;;62.58;34.70;;;6.90;79.80;;;;;;4937129;29;20047;-17
2022/12/23 00:26:21;;;;;;;60.60;35.05;;;6.90;79.90;;;;;;4937143;29;20559;-17
2022/12/23 00:28:48;;;;;;;60.90;34.10;;;6.90;80.00;;;;;;4936861;29;20032;-17
2022/12/23 00:31:17;;;;;;;75.32;42.10;;;6.90;80.00;;;;;;4937009;29;20043;-12
2022/12/23 00:33:45;;;;;;;57.17;33.72;;;6.90;80.00;;;;;;4936985;29;20433;-15
2022/12/23 00:36:22;;;;;;;52.03;31.42;;;6.90;80.00;;;;;;4936991;29;20040;-15
2022/12/23 00:44:18;;;;;;;47.00;29.50;;;7.10;80.00;;;;;;4936942;29;20159;-16
2022/12/23 00:46:44;;;;;;;45.40;28.27;;;7.10;80.00;;;;;;4936774;29;20078;-16
2022/12/23 00:52:01;;;;;;;51.35;30.02;;;7.20;79.80;;;;;;4937054;29;20086;-15
2022/12/23 00:54:27;;;;;;;51.42;30.30;;;7.20;79.80;;;;;;4936753;29;20027;-17
2022/12/23 00:56:53;;;;;;;52.08;30.63;;;7.20;79.70;;;;;;4936784;29;20031;-16
2022/12/23 00:59:19;;;;;;;61.65;36.22;;;7.20;79.60;;;;;;4937094;29;20027;-17
2022/12/23 01:07:13;;;;;;;;;;;7.30;79.40;;;;;;4937440;29;20238;-16
2022/12/23 01:09:39;;;;;;;69.47;38.47;;;7.20;79.50;;;;;;4935500;29;20025;-15
2022/12/23 01:12:06;;;;;;;67.60;38.20;;;7.30;79.70;;;;;;4936829;29;20035;-16
2022/12/23 01:14:32;;;;;;;77.60;40.58;;;7.20;79.60;;;;;;4936287;29;20034;-15
2022/12/23 01:16:58;;;;;;;70.82;40.80;;;7.10;79.50;;;;;;4935989;29;20039;-15
2022/12/23 01:19:24;;;;;;;75.35;42.45;;;7.10;79.50;;;;;;4936228;29;20028;-14
2022/12/23 01:21:50;;;;;;;68.50;38.50;;;7.00;79.60;;;;;;4936154;29;20219;-15
2022/12/23 01:24:16;;;;;;;64.72;36.30;;;6.90;79.70;;;;;;4936638;29;20047;-17
2022/12/23 01:26:42;;;;;;;68.22;39.35;;;6.90;79.70;;;;;;4935709;29;20106;-17
2022/12/23 01:29:08;;;;;;;78.68;42.85;;;6.90;79.90;;;;;;4935838;29;20520;-14
2022/12/23 01:31:34;;;;;;;72.82;37.58;;;6.90;80.00;;;;;;4936182;29;20066;-14
2022/12/23 01:34:00;;;;;;;72.35;39.20;;;6.90;80.00;;;;;;4936174;29;20114;-14
2022/12/23 01:36:25;;;;;;;59.00;34.72;;;6.90;80.10;;;;;;4936274;29;20032;-16
2022/12/23 01:38:51;;;;;;;65.80;38.22;;;6.80;80.00;;;;;;4935705;29;20483;-13
2022/12/23 01:44:49;;;;;;;75.85;42.80;;;6.90;80.10;;;;;;4936156;29;20046;-16
2022/12/23 01:47:39;;;;;;;67.28;36.80;;;6.80;80.10;;;;;;4935769;29;20602;-17
2022/12/23 01:50:34;;;;;;;64.35;35.08;;;6.90;80.10;;;;;;4935794;29;20031;-17
2022/12/23 01:53:16;;;;;;;60.25;33.30;;;6.80;80.30;;;;;;4932515;29;20118;-16
2022/12/23 01:56:22;;;;;;;60.45;33.35;;;6.90;80.30;;;;;;4935708;29;20024;-17
2022/12/23 01:58:58;;;;;;;51.08;30.88;;;6.90;80.30;;;;;;4877140;29;20085;-15
2022/12/23 02:04:14;;;;;;;46.13;27.90;;;6.90;80.30;;;;;;4877549;29;20040;-16
2022/12/23 02:09:32;;;;;;;50.72;30.23;;;6.90;80.10;;;;;;4877456;29;20044;-13
2022/12/23 02:12:31;;;;;;;45.28;27.50;;;7.00;80.20;;;;;;4876889;29;20506;-13
2022/12/23 02:18:24;;;;;;;60.30;34.50;;;7.10;80.00;;;;;;4877278;29;20056;-15
2022/12/23 02:21:18;;;;;;;67.95;37.65;;;7.10;79.70;;;;;;4876875;29;20177;-14
2022/12/23 02:23:57;;;;;;;69.38;39.67;;;7.00;79.70;;;;;;4864646;29;20506;-15
2022/12/23 02:26:46;;;;;;;53.20;29.35;;;7.00;79.70;;;;;;4876932;29;20108;-15
2022/12/23 02:29:12;;;;;;;64.15;34.88;;;6.90;79.80;;;;;;4876838;29;20446;-12
2022/12/23 02:31:56;;;;;;;51.05;30.33;;;6.90;80.00;;;;;;4876698;29;20037;-16
2022/12/23 02:34:34;;;;;;;73.07;40.25;;;6.90;80.00;;;;;;4906176;29;20047;-17
2022/12/23 02:37:31;;;;;;;72.95;41.28;;;6.90;79.90;;;;;;4935438;29;20115;-17
2022/12/23 02:40:04;;;;;;;53.33;31.70;;;6.90;79.90;;;;;;4880506;29;20044;-17
2022/12/23 02:42:36;;;;;;;70.65;40.50;;;6.90;79.90;;;;;;4880495;29;20124;-14
2022/12/23 02:45:11;;;;;;;71.10;39.55;;;6.90;79.90;;;;;;4880387;29;20124;-13
2022/12/23 02:47:43;;;;;;;52.58;31.35;;;6.90;79.90;;;;;;4880400;29;20032;-15
2022/12/23 02:50:18;;;;;;;66.03;35.75;;;6.90;80.00;;;;;;4880368;29;20520;-18
2022/12/23 02:52:46;;;;;;;51.33;30.33;;;6.90;80.00;;;;;;4880430;29;20056;-17
2022/12/23 02:55:20;;;;;;;60.75;35.90;;;6.90;80.10;;;;;;4880260;29;20165;-17
2022/12/23 02:57:50;;;;;;;58.50;32.25;;;6.90;80.20;;;;;;4880713;29;20035;-13
2022/12/23 03:00:17;;;;;;;49.33;29.63;;;6.90;80.30;;;;;;4880296;29;20037;-16
2022/12/23 03:02:43;;;;;;;47.47;27.73;;;6.90;80.30;;;;;;4880128;29;20069;-14
2022/12/23 03:05:48;;;;;;;53.28;31.70;;;6.90;80.20;;;;;;4879837;29;20025;-15
2022/12/23 03:08:40;;;;;;;51.92;31.52;;;7.00;80.20;;;;;;4788793;30;20063;-16
2022/12/23 03:11:13;;;;;;;45.80;29.30;;;7.00;80.00;;;;;;4788585;30;20039;-14
2022/12/23 03:14:13;;;;;;;54.53;32.37;;;7.00;80.10;;;;;;4788509;30;20108;-17
2022/12/23 03:17:00;;;;;;;60.92;35.13;;;7.10;80.10;;;;;;4813817;29;20502;-14
2022/12/23 03:19:50;;;;;;;53.78;31.75;;;7.10;80.10;;;;;;4843485;29;20410;-15
2022/12/23 03:22:34;;;;;;;58.20;31.70;;;7.10;80.00;;;;;;4827113;29;20061;-15
2022/12/23 03:25:13;;;;;;;44.17;27.50;;;7.00;80.00;;;;;;4842724;29;20030;-14
2022/12/23 03:27:44;;;;;;;66.30;39.95;;;7.00;80.00;;;;;;4843114;29;20069;-13
2022/12/23 03:30:19;;;;;;;67.57;38.97;;;7.00;80.10;;;;;;4842790;29;20033;-17
2022/12/23 03:32:53;;;;;;;70.85;39.53;;;7.00;80.00;;;;;;4842824;29;20056;-14
2022/12/23 03:35:25;;;;;;;71.70;38.58;;;7.00;79.90;;;;;;4842540;29;20403;-17
2022/12/23 03:37:54;;;;;;;62.88;35.50;;;6.90;80.00;;;;;;4846534;29;20061;-13
2022/12/23 03:40:28;;;;;;;61.05;34.97;;;6.90;80.00;;;;;;4938252;29;20035;-16
2022/12/23 03:43:00;;;;;;;51.03;30.38;;;6.90;80.00;;;;;;4938436;29;20071;-17
2022/12/23 03:45:38;;;;;;;53.30;29.98;;;6.90;80.10;;;;;;4938231;29;20028;-15
2022/12/23 03:48:26;;;;;;;45.58;28.40;;;6.80;80.10;;;;;;4938317;29;20024;-17
2022/12/23 03:50:58;;;;;;;54.63;31.33;;;6.90;80.20;;;;;;4926539;29;20032;-15
2022/12/23 03:53:41;;;;;;;66.38;37.33;;;6.90;80.30;;;;;;4938103;29;20044;-15
2022/12/23 03:56:12;;;;;;;59.95;33.97;;;6.90;80.20;;;;;;4938156;29;20031;-15
2022/12/23 03:58:56;;;;;;;63.80;36.17;;;6.90;80.10;;;;;;4937939;29;20107;-14
2022/12/23 04:01:33;;;;;;;61.22;34.85;;;6.90;80.10;;;;;;4937627;29;20126;-17
2022/12/23 04:04:14;;;;;;;66.15;38.08;;;6.80;80.10;;;;;;4937716;29;20047;-16
2022/12/23 04:06:52;;;;;;;70.38;39.38;;;6.80;80.10;;;;;;4937609;29;20052;-16
2022/12/23 04:09:20;;;;;;;60.60;34.42;;;6.80;80.20;;;;;;4937900;29;20039;-17
2022/12/23 04:11:47;;;;;;;61.20;34.70;;;6.70;80.20;;;;;;4937764;29;20388;-16
2022/12/23 04:14:17;;;;;;;53.00;31.63;;;6.70;80.20;;;;;;4937962;29;20031;-18
2022/12/23 04:16:44;;;;;;;50.65;29.95;;;6.70;80.30;;;;;;4937341;29;20039;-16
2022/12/23 04:19:10;;;;;;;66.47;37.95;;;6.70;80.40;;;;;;4937483;29;20031;-13
2022/12/23 04:21:36;;;;;;;50.22;29.80;;;6.70;80.40;;;;;;4937069;29;20314;-15
2022/12/23 04:24:01;;;;;;;49.15;28.67;;;6.70;80.40;;;;;;4937725;29;20035;-17
2022/12/23 04:26:28;;;;;;;61.13;34.65;;;6.80;80.50;;;;;;4937815;29;20083;-17
2022/12/23 04:28:53;;;;;;;54.72;30.92;;;6.80;80.50;;;;;;4937271;29;20035;-15
2022/12/23 04:31:19;;;;;;;57.50;34.75;;;6.80;80.50;;;;;;4937043;29;20036;-15
2022/12/23 04:33:45;;;;;;;58.05;31.17;;;6.80;80.40;;;;;;4937201;29;20050;-17
2022/12/23 04:36:11;;;;;;;61.45;35.53;;;6.80;80.30;;;;;;4937581;29;20032;-17
2022/12/23 04:38:37;;;;;;;59.55;34.45;;;6.70;80.30;;;;;;4937230;29;20020;-15
2022/12/23 04:41:03;;;;;;;55.45;32.42;;;6.70;80.30;;;;;;4936970;29;20027;-15
2022/12/23 04:43:29;;;;;;;56.40;31.80;;;6.70;80.30;;;;;;4937199;29;20039;-16
2022/12/23 04:45:55;;;;;;;43.50;25.88;;;6.70;80.40;;;;;;4936800;29;20031;-17
2022/12/23 04:48:21;;;;;;;47.17;26.75;;;6.70;80.40;;;;;;4937369;29;20040;-16
2022/12/23 04:50:47;;;;;;;46.63;26.55;;;6.60;80.40;;;;;;4936736;29;20028;-18
2022/12/23 04:53:13;;;;;;;49.50;28.60;;;6.70;80.40;;;;;;4936844;29;20138;-17
2022/12/23 04:55:39;;;;;;;44.95;26.27;;;6.70;80.40;;;;;;4937240;29;20035;-17
2022/12/23 04:58:05;;;;;;;46.55;28.20;;;6.70;80.40;;;;;;4936588;29;20036;-17
2022/12/23 05:00:30;;;;;;;49.63;26.77;;;6.70;80.30;;;;;;4936791;29;20115;-17
2022/12/23 05:02:56;;;;;;;47.97;27.17;;;6.70;80.30;;;;;;4936650;29;20487;-15
2022/12/23 05:05:22;;;;;;;41.92;24.70;;;6.70;80.30;;;;;;4936823;29;20035;-17
2022/12/23 05:07:49;;;;;;;37.25;22.13;;;6.70;80.20;;;;;;4936427;29;20439;-15
2022/12/23 05:10:15;;;;;;;38.55;21.73;;;6.70;80.20;;;;;;4936719;29;20389;-17
2022/12/23 05:12:41;;;;;;;35.20;21.13;;;6.60;80.20;;;;;;4936439;29;20036;-16
2022/12/23 05:15:08;;;;;;;30.88;18.95;;;6.60;80.30;;;;;;4936160;29;20045;-17
2022/12/23 05:17:34;;;;;;;32.58;20.08;;;6.70;80.30;;;;;;4935257;29;20040;-17
2022/12/23 05:20:00;;;;;;;41.42;23.30;;;6.70;80.20;;;;;;4936289;29;20034;-17
2022/12/23 05:22:26;;;;;;;41.17;24.02;;;6.80;80.20;;;;;;4936132;29;20047;-17
2022/12/23 05:24:51;;;;;;;38.80;22.30;;;6.80;80.00;;;;;;4936033;29;20392;-16
2022/12/23 05:27:17;;;;;;;33.92;20.15;;;6.80;80.00;;;;;;4936264;29;20028;-18
2022/12/23 05:29:43;;;;;;;40.45;23.20;;;6.80;80.00;;;;;;4936192;29;20103;-17
2022/12/23 05:32:09;;;;;;;35.80;20.23;;;6.80;80.00;;;;;;4935873;29;20039;-15
2022/12/23 05:34:35;;;;;;;41.40;21.80;;;6.80;79.90;;;;;;4936037;29;20079;-16
2022/12/23 05:37:01;;;;;;;30.60;18.13;;;6.80;79.90;;;;;;4935903;29;20027;-17
2022/12/23 05:39:27;;;;;;;32.20;18.83;;;6.80;79.90;;;;;;4936440;29;20024;-17
2022/12/23 05:41:53;;;;;;;34.13;20.73;;;6.80;79.90;;;;;;4935852;29;20024;-17
2022/12/23 05:44:19;;;;;;;37.10;21.35;;;6.70;79.90;;;;;;4936179;29;20099;-17
2022/12/23 05:46:45;;;;;;;35.42;21.20;;;6.70;79.90;;;;;;4936021;29;20038;-16
2022/12/23 05:49:10;;;;;;;33.78;19.80;;;6.60;79.80;;;;;;4935645;29;20024;-17
2022/12/23 05:51:36;;;;;;;34.08;20.85;;;6.60;79.90;;;;;;4935686;29;20035;-17
2022/12/23 05:54:02;;;;;;;37.15;20.40;;;6.50;79.90;;;;;;4918570;29;20027;-17
2022/12/23 05:56:28;;;;;;;33.15;19.10;;;6.50;80.00;;;;;;4935959;29;20038;-17
2022/12/23 05:58:54;;;;;;;26.13;15.90;;;6.50;80.00;;;;;;4935575;29;20102;-17
2022/12/23 06:01:20;;;;;;;31.27;17.85;;;6.50;80.00;;;;;;4935545;29;20161;-15
2022/12/23 06:03:46;;;;;;;25.95;15.02;;;6.40;80.00;;;;;;4935861;29;20090;-17
2022/12/23 06:06:12;;;;;;;24.65;14.50;;;6.50;80.10;;;;;;4935547;29;20032;-17
2022/12/23 06:08:38;;;;;;;28.92;16.65;;;6.50;80.10;;;;;;4935732;29;20526;-15
2022/12/23 06:11:04;;;;;;;25.90;16.92;;;6.50;80.00;;;;;;4935379;29;20071;-15
2022/12/23 06:13:30;;;;;;;35.35;18.83;;;6.60;79.70;;;;;;4935768;29;20087;-17
2022/12/23 06:15:56;;;;;;;33.60;18.63;;;6.60;79.70;;;;;;4935794;29;20051;-15
2022/12/23 06:18:22;;;;;;;33.95;17.70;;;6.60;79.70;;;;;;4935752;29;20028;-17
2022/12/23 06:20:48;;;;;;;24.67;15.05;;;6.60;79.70;;;;;;4935500;29;20028;-17
2022/12/23 06:23:14;;;;;;;26.63;15.75;;;6.60;79.70;;;;;;4935282;29;20052;-16
2022/12/23 06:25:40;;;;;;;30.25;17.58;;;6.60;79.70;;;;;;4935445;29;20484;-16
2022/12/23 06:28:06;;;;;;;34.85;18.48;;;6.70;79.40;;;;;;4935348;29;20086;-16
2022/12/23 06:30:32;;;;;;;35.03;20.60;;;6.70;79.50;;;;;;4935237;29;20465;-18
2022/12/23 06:32:58;;;;;;;36.20;19.17;;;6.70;79.50;;;;;;4933830;29;20027;-17
2022/12/23 06:35:24;;;;;;;35.40;19.98;;;6.80;79.30;;;;;;4935623;29;20036;-16
2022/12/23 06:37:52;;;;;;;32.28;19.27;;;6.80;79.20;;;;;;4935297;29;20036;-18
2022/12/23 06:40:18;;;;;;;32.83;19.83;;;6.80;79.30;;;;;;4935319;29;20098;-17
2022/12/23 06:42:44;;;;;;;33.15;18.60;;;6.80;79.30;;;;;;4933994;29;20127;-17
2022/12/23 06:45:10;;;;;;;35.72;20.25;;;6.80;79.40;;;;;;4935343;29;20020;-17
2022/12/23 06:47:36;;;;;;;32.17;18.80;;;6.80;79.30;;;;;;4935153;29;20036;-16
2022/12/23 06:50:02;;;;;;;33.85;19.50;;;6.80;79.30;;;;;;4935527;29;20031;-15
2022/12/23 06:52:28;;;;;;;61.25;30.83;;;6.80;79.40;;;;;;4935736;29;20576;-17
2022/12/23 06:54:54;;;;;;;39.45;22.73;;;6.90;79.40;;;;;;4934948;29;20110;-18
2022/12/23 06:57:20;;;;;;;42.13;22.48;;;6.90;79.50;;;;;;4935127;29;20056;-17
2022/12/23 06:59:45;;;;;;;43.03;23.33;;;6.90;79.60;;;;;;4935073;29;20035;-15
2022/12/23 07:02:11;;;;;;;41.05;23.70;;;6.90;79.60;;;;;;4934840;29;20028;-17
2022/12/23 07:04:37;;;;;;;49.00;28.88;;;6.90;79.60;;;;;;4934941;29;20028;-17
2022/12/23 07:07:03;;;;;;;50.72;26.70;;;6.90;79.50;;;;;;4934848;29;20036;-17
2022/12/23 07:09:29;;;;;;;50.40;28.45;;;6.90;79.50;;;;;;4935020;29;20062;-15
2022/12/23 07:11:54;;;;;;;44.92;24.77;;;6.90;79.60;;;;;;4935554;29;20495;-15
2022/12/23 07:14:20;;;;;;;49.20;27.38;;;6.90;79.60;;;;;;4934973;29;20385;-17
2022/12/23 07:16:47;;;;;;;49.88;28.92;;;6.90;79.50;;;;;;4934849;29;20404;-16
2022/12/23 07:19:12;;;;;;;44.28;25.95;;;7.00;79.40;;;;;;4935510;29;20038;-14
2022/12/23 07:21:38;;;;;;;47.83;28.40;;;7.00;79.40;;;;;;4933373;29;20027;-13
2022/12/23 07:24:05;;;;;;;71.43;37.08;;;7.10;79.30;;;;;;4935258;29;20035;-13
2022/12/23 07:26:31;;;;;;;59.70;33.58;;;7.10;79.30;;;;;;4938746;29;20020;-15
2022/12/23 07:28:56;;;;;;;70.22;38.13;;;7.20;79.30;;;;;;4938307;29;20357;-13
2022/12/23 07:31:22;;;;;;;72.78;37.88;;;7.10;79.50;;;;;;4938151;29;20341;-15
2022/12/23 07:33:48;;;;;;;67.30;36.72;;;7.20;79.40;;;;;;4938452;29;20032;-17
2022/12/23 07:36:14;;;;;;;75.72;41.40;;;7.20;79.30;;;;;;4938156;29;20547;-16
2022/12/23 07:38:40;;;;;;;70.95;38.67;;;7.30;79.30;;;;;;4938475;29;20441;-16
2022/12/23 07:41:05;;;;;;;81.35;43.67;;;7.30;79.40;;;;;;4937924;29;20382;-14
2022/12/23 07:43:31;;;;;;;67.60;38.50;;;7.30;79.40;;;;;;4938026;29;20019;-15
2022/12/23 07:45:57;;;;;;;70.03;38.55;;;7.30;79.50;;;;;;4937890;29;20062;-16
2022/12/23 07:48:23;;;;;;;74.65;41.65;;;7.40;79.40;;;;;;4937947;29;20032;-14
2022/12/23 07:50:48;;;;;;;78.55;41.50;;;7.40;79.40;;;;;;4937736;29;20067;-15
2022/12/23 07:53:14;;;;;;;71.53;38.58;;;7.40;79.30;;;;;;4938033;29;20035;-16
2022/12/23 07:55:40;;;;;;;76.70;39.75;;;7.50;79.20;;;;;;4938117;29;20544;-16
2022/12/23 07:58:06;;;;;;;71.40;39.58;;;7.60;79.30;;;;;;4937830;29;20032;-16
2022/12/23 08:00:31;;;;;;;73.68;40.03;;;7.60;79.40;;;;;;4936426;29;20036;-20
2022/12/23 08:02:57;;;;;;;74.55;39.88;;;7.60;79.40;;;;;;4937547;29;20027;-16
2022/12/23 08:05:23;;;;;;;78.55;42.13;;;7.60;79.20;;;;;;4937969;29;20020;-17
2022/12/23 08:07:50;;;;;;;82.25;44.03;;;7.70;79.40;;;;;;4938204;29;20024;-17
2022/12/23 08:10:16;;;;;;;75.22;41.53;;;7.70;79.30;;;;;;4937766;29;20036;-18
2022/12/23 08:12:42;;;;;;;74.90;40.20;;;7.70;79.40;;;;;;4938019;29;20027;-18
2022/12/23 08:15:08;;;;;;;79.97;42.70;;;7.80;79.40;;;;;;4935984;29;20082;-17
2022/12/23 08:17:34;;;;;;;74.25;41.33;;;7.80;79.60;;;;;;4937562;29;20075;-16
2022/12/23 08:20:01;;;;;;;82.85;42.13;;;7.90;79.40;;;;;;4937476;29;20057;-16
2022/12/23 08:22:26;;;;;;;74.68;38.88;;;7.90;79.40;;;;;;4937303;29;20459;-17
2022/12/23 08:24:52;;;;;;;79.22;41.60;;;7.90;79.50;;;;;;4937333;29;20024;-15
2022/12/23 08:27:18;;;;;;;77.00;41.22;;;7.90;79.50;;;;;;4937640;29;20480;-16
2022/12/23 08:29:44;;;;;;;76.38;40.53;;;7.90;79.50;;;;;;4937141;29;20114;-17
2022/12/23 08:32:10;;;;;;;84.32;43.35;;;7.90;79.60;;;;;;4937407;29;20023;-15
2022/12/23 08:34:35;;;;;;;81.72;40.45;;;7.90;79.70;;;;;;4935807;29;20032;-18
2022/12/23 08:37:01;;;;;;;76.07;39.20;;;7.90;79.70;;;;;;4936607;29;20419;-18
2022/12/23 08:39:27;;;;;;;77.20;40.85;;;7.90;79.70;;;;;;4937295;29;20028;-16
2022/12/23 08:41:54;;;;;;;74.13;40.20;;;8.00;79.70;;;;;;4937166;29;20428;-12
2022/12/23 08:44:21;;;;;;;78.72;40.45;;;8.00;79.70;;;;;;4936899;29;20377;-14
2022/12/23 08:46:47;;;;;;;67.68;36.83;;;8.00;79.70;;;;;;4936656;29;20396;-15
2022/12/23 08:49:12;;;;;;;79.13;40.65;;;8.10;79.70;;;;;;4936857;29;20491;-13
2022/12/23 08:51:38;;;;;;;76.70;41.83;;;8.20;79.70;;;;;;4936855;29;20024;-15
2022/12/23 08:54:05;;;;;;;77.88;40.70;;;8.20;79.60;;;;;;4936689;29;20039;-14
2022/12/23 08:56:34;;;;;;;75.28;40.80;;;8.30;79.60;;;;;;4936699;29;20063;-16
2022/12/23 08:59:00;;;;;;;78.97;39.80;;;8.30;79.60;;;;;;4936356;29;20036;-15
2022/12/23 09:01:28;;;;;;;79.60;41.15;;;8.40;79.60;;;;;;4936611;29;20102;-15
2022/12/23 09:03:54;;;;;;;77.50;40.40;;;8.50;79.50;;;;;;4936474;29;20020;-16
2022/12/23 09:06:22;;;;;;;68.53;37.13;;;8.50;79.40;;;;;;4936526;29;20107;-14
2022/12/23 09:08:48;;;;;;;71.68;38.35;;;8.50;79.20;;;;;;4936194;29;20038;-15
2022/12/23 09:11:18;;;;;;;71.38;38.22;;;8.50;79.20;;;;;;4935174;29;20031;-14
2022/12/23 09:13:43;;;;;;;71.72;37.33;;;8.50;79.30;;;;;;4935171;29;20023;-14
2022/12/23 09:16:10;;;;;;;86.18;42.83;;;8.60;79.30;;;;;;4936386;29;20037;-15
2022/12/23 09:18:36;;;;;;;80.95;40.55;;;8.70;79.20;;;;;;4936370;29;20039;-14
2022/12/23 09:21:05;;;;;;;67.30;36.78;;;8.70;79.10;;;;;;4935943;29;20031;-13
2022/12/23 09:23:32;;;;;;;71.63;38.72;;;8.80;79.10;;;;;;4936369;29;20066;-16
2022/12/23 09:25:58;;;;;;;72.82;37.55;;;8.90;79.30;;;;;;4936284;29;20092;-20
2022/12/23 09:28:26;;;;;;;72.78;37.67;;;9.10;78.90;;;;;;4935975;29;20060;-15
2022/12/23 09:30:52;;;;;;;71.10;37.22;;;9.20;78.70;;;;;;4935969;29;20094;-15
2022/12/23 09:33:18;;;;;;;74.97;37.47;;;9.30;78.50;;;;;;4934732;29;20102;-13
2022/12/23 09:35:44;;;;;;;70.78;36.83;;;9.40;78.40;;;;;;4936653;29;20031;-15
2022/12/23 09:38:11;;;;;;;72.70;37.30;;;9.50;78.10;;;;;;4936112;29;20051;-15
2022/12/23 09:40:39;;;;;;;72.55;36.28;;;9.60;77.60;;;;;;4935850;29;20027;-16
2022/12/23 09:43:14;;;;;;;75.22;36.10;;;9.70;77.40;;;;;;4935549;29;20043;-15
2022/12/23 09:46:13;;;;;;;72.22;35.70;;;9.70;77.40;;;;;;4935986;29;20050;-18
2022/12/23 09:49:13;;;;;;;66.10;34.15;;;9.70;77.50;;;;;;4935035;29;20035;-14
2022/12/23 09:51:39;;;;;;;65.85;33.88;;;9.90;77.20;;;;;;4876913;29;20097;-15
2022/12/23 09:54:23;;;;;;;73.65;36.35;;;10.10;76.80;;;;;;4876920;29;20199;-13
2022/12/23 09:56:57;;;;;;;;;;;10.20;76.50;;;;;;4877760;29;20045;-14
2022/12/23 09:59:41;;;;;;;;;;;10.40;76.10;;;;;;4877565;29;19914;-14
2022/12/23 10:02:27;;;;;;;66.87;32.60;;;10.40;75.70;;;;;;4877029;29;19911;-17
2022/12/23 10:05:23;;;;;;;66.22;33.95;;;10.50;75.10;;;;;;4876650;29;20816;-14
2022/12/23 10:07:57;;;;;;;68.55;33.58;;;10.50;75.10;;;;;;4876957;29;20041;-15
2022/12/23 10:10:46;;;;;;;60.63;30.92;;;10.50;75.10;;;;;;4876654;29;20431;-15
2022/12/23 10:13:34;;;;;;;67.75;33.28;;;10.40;75.10;;;;;;4876709;29;20132;-15
2022/12/23 10:16:24;;;;;;;65.95;32.00;;;10.50;75.20;;;;;;4876716;29;20075;-15
2022/12/23 10:18:50;;;;;;;61.20;31.40;;;10.60;75.10;;;;;;4876641;29;20045;-13
2022/12/23 10:21:21;;;;;;;69.13;33.35;;;10.70;75.00;;;;;;4877459;29;20041;-16
2022/12/23 10:23:51;;;;;;;60.83;31.35;;;10.80;75.10;;;;;;4876492;29;20196;-15
2022/12/23 10:26:38;;;;;;;65.80;34.55;;;10.90;74.90;;;;;;4876661;29;20037;-16
2022/12/23 10:29:17;;;;;;;64.38;33.47;;;10.90;74.80;;;;;;4932539;29;20554;-17
2022/12/23 10:32:01;;;;;;;63.45;31.77;;;10.90;74.70;;;;;;4935426;29;20028;-14
2022/12/23 10:34:50;;;;;;;62.40;34.40;;;10.80;74.70;;;;;;4935022;29;20465;-17
2022/12/23 10:37:32;;;;;;;69.00;34.67;;;10.80;74.90;;;;;;4935400;29;20024;-17
2022/12/23 10:40:07;;;;;;;64.10;33.95;;;10.80;75.10;;;;;;4935353;29;20098;-15
2022/12/23 10:42:43;;;;;;;66.97;34.63;;;10.90;75.10;;;;;;4935578;29;20099;-16
2022/12/23 10:45:18;;;;;;;65.78;34.55;;;10.90;74.90;;;;;;4934824;29;20055;-16
2022/12/23 10:48:11;;;;;;;65.55;33.90;;;10.90;74.80;;;;;;4934968;29;20042;-13
2022/12/23 10:51:02;;;;;;;61.40;33.83;;;11.00;74.80;;;;;;4905041;29;20091;-17
2022/12/23 10:53:39;;;;;;;59.60;31.58;;;11.10;74.50;;;;;;4935159;29;20471;-15
2022/12/23 10:56:06;;;;;;;55.35;29.15;;;11.30;74.50;;;;;;4935208;29;20463;-17
2022/12/23 10:58:37;;;;;;;50.83;27.42;;;11.40;74.20;;;;;;4933794;29;20098;-18
2022/12/23 11:01:06;;;;;;;60.78;31.98;;;11.40;74.00;;;;;;4938390;29;20027;-15
2022/12/23 11:03:48;;;;;;;59.70;32.28;;;11.60;73.40;;;;;;4938640;29;20023;-16
2022/12/23 11:06:14;;;;;;;61.53;31.30;;;11.60;73.10;;;;;;4938920;29;20028;-16
2022/12/23 11:08:41;;;;;;;59.53;30.70;;;11.60;73.00;;;;;;4938732;29;20056;-16
2022/12/23 11:11:07;;;;;;;57.33;31.02;;;11.60;73.20;;;;;;4938616;29;20444;-14
2022/12/23 11:13:39;;;;;;;65.60;31.48;;;11.70;73.10;;;;;;4938349;29;20064;-12
2022/12/23 11:16:17;;;;;;;56.05;28.00;;;11.90;72.70;;;;;;4938898;29;20087;-16
2022/12/23 11:19:14;;;;;;;56.60;29.02;;;11.90;72.30;;;;;;4938441;29;20396;-17
2022/12/23 11:21:56;;;;;;;59.67;30.67;;;12.00;72.20;;;;;;4937111;29;20480;-16
2022/12/23 11:24:24;;;;;;;56.47;28.60;;;12.10;72.10;;;;;;4938356;29;20036;-15
2022/12/23 11:27:03;;;;;;;58.05;29.77;;;11.90;72.10;;;;;;4938149;29;20390;-15
2022/12/23 11:29:42;;;;;;;64.93;32.25;;;11.90;71.90;;;;;;4938429;29;20055;-15
2022/12/23 11:32:25;;;;;;;62.17;31.38;;;11.80;72.30;;;;;;4938269;29;20024;-15
2022/12/23 11:34:52;;;;;;;57.73;31.40;;;11.60;72.40;;;;;;4937981;29;20039;-16
2022/12/23 11:37:26;;;;;;;60.78;30.77;;;11.60;72.60;;;;;;4938350;29;20040;-15
2022/12/23 11:39:52;;;;;;;51.95;28.20;;;11.50;72.80;;;;;;4938519;29;20031;-15
2022/12/23 11:42:26;;;;;;;60.83;32.10;;;11.60;72.90;;;;;;4937972;29;20075;-13
2022/12/23 11:44:54;;;;;;;61.70;32.20;;;11.80;72.70;;;;;;4937946;29;20067;-13
2022/12/23 11:47:23;;;;;;;60.15;30.85;;;12.00;72.60;;;;;;4937830;29;20027;-13
2022/12/23 11:49:51;;;;;;;58.28;30.17;;;12.30;71.90;;;;;;4937694;29;20031;-16
2022/12/23 11:52:19;;;;;;;57.15;28.70;;;12.50;71.60;;;;;;4937661;29;20039;-16
2022/12/23 11:54:54;;;;;;;46.40;24.95;;;12.80;70.90;;;;;;4937870;29;20035;-15
2022/12/23 11:57:40;;;;;;;55.95;28.08;;;12.90;70.60;;;;;;4938319;29;20023;-17
2022/12/23 12:00:18;;;;;;;52.20;29.38;;;13.40;69.60;;;;;;4937474;29;20036;-17
2022/12/23 12:03:05;;;;;;;47.35;26.48;;;13.60;69.20;;;;;;4937730;29;20051;-15
2022/12/23 12:05:48;;;;;;;55.50;28.88;;;13.90;68.10;;;;;;4935430;29;20111;-16
2022/12/23 12:08:19;;;;;;;59.45;28.90;;;14.20;66.20;;;;;;4935998;29;20028;-14
2022/12/23 12:10:45;;;;;;;50.20;27.70;;;14.50;65.70;;;;;;4934712;29;20119;-15
2022/12/23 12:13:22;;;;;;;45.95;24.55;;;14.70;65.00;;;;;;4934959;29;20331;-14
2022/12/23 12:16:00;;;;;;;50.78;26.38;;;14.70;64.70;;;;;;4935425;29;20476;-15
2022/12/23 12:18:26;;;;;;;46.83;25.63;;;14.70;65.10;;;;;;4935231;29;20340;-15
2022/12/23 12:20:57;;;;;;;45.67;24.92;;;14.70;65.20;;;;;;4935066;29;20044;-16
2022/12/23 12:23:39;;;;;;;42.65;23.30;;;14.80;64.90;;;;;;4935073;29;20052;-17
2022/12/23 12:26:16;;;;;;;45.13;24.33;;;14.90;64.60;;;;;;4935402;29;20040;-15
2022/12/23 12:28:45;;;;;;;46.08;25.90;;;14.90;64.00;;;;;;4935233;29;20040;-15
2022/12/23 12:31:26;;;;;;;47.47;25.77;;;15.10;63.60;;;;;;4934634;29;20043;-16
2022/12/23 12:34:15;;;;;;;41.58;23.20;;;15.30;63.60;;;;;;4934887;29;20048;-15
2022/12/23 12:36:51;;;;;;;44.15;25.75;;;15.40;63.20;;;;;;4925598;29;20044;-15
2022/12/23 12:39:27;;;;;;;45.83;26.10;;;15.60;63.20;;;;;;4918233;29;20088;-17
2022/12/23 12:42:11;;;;;;;42.65;24.42;;;15.70;62.10;;;;;;4918249;29;20063;-15
2022/12/23 12:44:49;;;;;;;49.97;27.67;;;15.80;61.50;;;;;;4918371;29;20485;-16
2022/12/23 12:47:25;;;;;;;46.33;26.70;;;15.90;58.60;;;;;;4918210;29;20054;-14
2022/12/23 12:49:57;;;;;;;46.72;26.63;;;15.90;59.20;;;;;;4918074;29;20032;-14
2022/12/23 12:52:25;;;;;;;43.63;24.33;;;15.90;59.20;;;;;;4918454;29;20421;-15
2022/12/23 12:55:00;;;;;;;41.95;23.92;;;15.90;59.60;;;;;;4917661;29;20115;-15
2022/12/23 12:57:27;;;;;;;43.45;24.67;;;15.90;58.90;;;;;;4917928;29;20370;-13
2022/12/23 12:59:55;;;;;;;35.00;21.45;;;16.20;57.70;;;;;;4917426;29;20409;-14
2022/12/23 13:02:24;;;;;;;37.90;20.75;;;16.20;57.20;;;;;;4917547;29;20052;-15
2022/12/23 13:05:25;;;;;;;29.80;18.42;;;16.20;57.40;;;;;;4917290;29;20024;-16
2022/12/23 13:08:06;;;;;;;36.95;20.73;;;16.10;57.00;;;;;;4917214;29;20060;-16
2022/12/23 13:10:38;;;;;;;35.10;19.75;;;15.90;56.40;;;;;;4917321;29;20543;-17
2022/12/23 13:13:25;;;;;;;33.13;20.00;;;15.70;57.10;;;;;;4917175;29;20034;-16
2022/12/23 13:16:02;;;;;;;30.02;18.25;;;15.60;57.20;;;;;;4917243;29;20044;-15
2022/12/23 13:18:46;;;;;;;32.65;19.05;;;15.70;57.60;;;;;;4917201;29;20028;-16
2022/12/23 13:21:22;;;;;;;33.50;18.73;;;15.70;57.40;;;;;;4917453;29;20028;-15
2022/12/23 13:23:57;;;;;;;33.08;19.38;;;15.60;57.70;;;;;;4933840;29;20152;-15
2022/12/23 13:26:45;;;;;;;35.72;20.30;;;15.50;58.50;;;;;;4936313;29;20036;-17